Time;durP1;ratioP1;P1;durP2;ratioP2;P2;SDS_P1;SDS_P2;PMS_P1;PMS_P2;Temp;Humidity;BMP_temperature;BMP_pressure;BME280_temperature;BME280_humidity;BME280_pressure;Samples;Min_cycle;Max_cycle;Signal;HPM_P1;HPM_P2
2024/04/04 04:02:47;;;;;;;1.20;1.10;;;10.90;97.30;;;;;;4991704;23;20590;-89
2024/04/04 04:05:14;;;;;;;1.40;1.30;;;10.80;97.30;;;;;;4963046;28;20433;-89
2024/04/04 04:07:40;;;;;;;0.93;0.87;;;10.80;97.30;;;;;;4971301;28;20202;-89
2024/04/04 04:10:06;;;;;;;5.80;1.43;;;10.80;97.30;;;;;;4962918;28;20814;-93
2024/04/04 04:12:31;;;;;;;2.03;1.33;;;10.70;97.30;;;;;;4976001;28;20438;-88
2024/04/04 04:14:57;;;;;;;1.10;1.00;;;10.70;97.30;;;;;;4964788;28;20434;-83
2024/04/04 04:17:22;;;;;;;1.53;1.43;;;10.60;97.30;;;;;;4964440;28;20187;-90
2024/04/04 04:19:50;;;;;;;1.00;0.90;;;10.50;97.30;;;;;;4971839;28;20250;-88
2024/04/04 04:22:16;;;;;;;1.27;1.17;;;10.50;97.30;;;;;;4976819;28;20214;-88
2024/04/04 04:24:42;;;;;;;0.70;0.70;;;10.40;97.30;;;;;;4985878;28;20424;-88
2024/04/04 04:27:08;;;;;;;0.83;0.77;;;10.40;97.30;;;;;;4973964;28;20183;-90
2024/04/04 04:29:34;;;;;;;1.10;1.00;;;10.40;97.30;;;;;;4964534;28;20817;-89
2024/04/04 04:31:59;;;;;;;1.77;1.10;;;10.40;97.30;;;;;;4977846;23;20238;-66
2024/04/04 04:34:25;;;;;;;1.00;0.90;;;10.30;97.30;;;;;;4998531;28;20419;-66
2024/04/04 04:36:55;;;;;;;0.90;0.80;;;10.30;97.30;;;;;;4983960;28;20700;-67
2024/04/04 04:39:21;;;;;;;0.90;0.80;;;10.30;97.30;;;;;;4983939;28;20579;-67
2024/04/04 04:41:47;;;;;;;1.80;1.30;;;10.30;97.30;;;;;;4984369;28;20940;-67
2024/04/04 04:44:13;;;;;;;0.93;0.83;;;10.30;97.30;;;;;;4992760;28;20457;-65
2024/04/04 04:46:38;;;;;;;1.00;0.90;;;10.30;97.30;;;;;;4970234;28;20269;-65
2024/04/04 04:49:04;;;;;;;0.70;0.70;;;10.30;97.30;;;;;;4976854;28;20600;-65
2024/04/04 04:51:29;;;;;;;0.80;0.70;;;10.20;97.30;;;;;;4969202;28;20208;-65
2024/04/04 04:53:56;;;;;;;0.90;0.80;;;10.10;97.30;;;;;;4969573;28;20179;-64
2024/04/04 04:56:22;;;;;;;5.20;1.60;;;10.10;97.30;;;;;;4983315;28;20277;-65
2024/04/04 04:58:47;;;;;;;1.67;1.57;;;10.10;97.30;;;;;;4963642;28;20521;-65
2024/04/04 05:01:13;;;;;;;0.90;0.80;;;10.10;97.30;;;;;;4966027;28;20214;-66
2024/04/04 05:03:39;;;;;;;0.90;0.80;;;10.10;97.30;;;;;;4962047;28;20182;-66
2024/04/04 05:06:07;;;;;;;0.90;0.80;;;10.10;97.30;;;;;;4967171;28;20474;-65
2024/04/04 05:08:33;;;;;;;5.43;1.33;;;10.10;97.30;;;;;;4977344;28;20178;-65
2024/04/04 05:10:59;;;;;;;23.97;1.43;;;10.00;97.30;;;;;;4963122;28;20452;-65
2024/04/04 05:13:27;;;;;;;0.90;0.80;;;10.00;97.30;;;;;;4966303;28;20437;-65
2024/04/04 05:15:54;;;;;;;0.80;0.80;;;10.10;97.30;;;;;;4968856;28;20461;-65
2024/04/04 05:18:20;;;;;;;1.07;1.00;;;10.10;97.30;;;;;;4963055;28;21037;-65
2024/04/04 05:20:46;;;;;;;0.83;0.77;;;10.10;97.30;;;;;;4961562;28;20537;-66
2024/04/04 05:23:11;;;;;;;1.10;1.00;;;10.20;97.30;;;;;;4969547;28;20493;-66
2024/04/04 05:25:37;;;;;;;1.40;1.17;;;10.20;97.30;;;;;;4973403;28;20182;-65
2024/04/04 05:28:02;;;;;;;0.90;0.80;;;10.20;97.30;;;;;;4969845;28;20473;-65
2024/04/04 05:30:30;;;;;;;1.00;0.90;;;10.20;97.30;;;;;;4963329;28;20265;-66
2024/04/04 05:33:01;;;;;;;0.80;0.70;;;10.20;97.30;;;;;;4964455;28;20434;-65
2024/04/04 05:35:28;;;;;;;2.10;1.00;;;10.20;97.30;;;;;;4984439;28;20454;-65
2024/04/04 05:37:54;;;;;;;1.60;1.50;;;10.20;97.30;;;;;;4959686;28;20659;-66
2024/04/04 05:40:20;;;;;;;1.07;0.97;;;10.20;97.30;;;;;;4956651;28;20458;-65
2024/04/04 05:42:45;;;;;;;1.07;0.97;;;10.30;97.30;;;;;;4969125;28;20454;-66
2024/04/04 05:45:11;;;;;;;0.97;0.87;;;10.40;97.30;;;;;;4971877;28;20200;-65
2024/04/04 05:47:36;;;;;;;1.43;1.33;;;10.40;97.30;;;;;;4960327;28;20179;-65
2024/04/04 05:50:02;;;;;;;1.37;1.27;;;10.50;97.30;;;;;;4963815;28;20213;-66
2024/04/04 05:52:27;;;;;;;0.90;0.80;;;10.60;97.30;;;;;;4982109;28;20636;-65
2024/04/04 05:54:53;;;;;;;2.90;2.10;;;10.70;97.30;;;;;;4966919;28;20276;-65
2024/04/04 05:57:19;;;;;;;0.77;0.70;;;10.70;97.30;;;;;;4965845;28;20355;-65
2024/04/04 05:59:45;;;;;;;0.80;0.70;;;10.80;97.30;;;;;;4966097;28;20453;-66
2024/04/04 06:02:11;;;;;;;1.13;1.10;;;10.80;97.30;;;;;;4966221;28;20580;-65
2024/04/04 06:04:36;;;;;;;0.90;0.80;;;10.90;97.30;;;;;;4982087;28;20433;-65
2024/04/04 06:07:02;;;;;;;0.93;0.83;;;10.90;97.30;;;;;;4958351;28;20206;-65
2024/04/04 06:09:28;;;;;;;1.00;0.90;;;10.90;97.30;;;;;;4973943;28;20217;-66
2024/04/04 06:11:54;;;;;;;0.93;0.83;;;10.90;97.30;;;;;;4969764;28;20198;-65
2024/04/04 06:14:20;;;;;;;7.50;2.17;;;10.90;97.30;;;;;;4976900;28;20434;-65
2024/04/04 06:16:46;;;;;;;0.67;0.63;;;11.00;97.30;;;;;;4969191;28;20417;-65
2024/04/04 06:19:11;;;;;;;1.00;0.90;;;11.00;97.30;;;;;;4956631;28;20210;-65
2024/04/04 06:21:37;;;;;;;0.97;0.93;;;11.10;97.30;;;;;;4970829;28;20453;-65
2024/04/04 06:24:03;;;;;;;0.90;0.80;;;11.20;97.30;;;;;;4997412;28;20241;-65
2024/04/04 06:26:28;;;;;;;1.00;0.83;;;11.30;97.30;;;;;;4984814;28;20247;-65
2024/04/04 06:28:55;;;;;;;2.20;1.37;;;11.40;97.30;;;;;;4967234;28;20702;-65
2024/04/04 06:31:21;;;;;;;1.37;1.27;;;11.50;97.30;;;;;;4971414;28;20226;-65
2024/04/04 06:33:47;;;;;;;0.90;0.80;;;11.60;97.30;;;;;;4983061;28;20441;-65
2024/04/04 06:36:13;;;;;;;1.23;1.00;;;11.70;97.30;;;;;;4967542;28;20457;-65
2024/04/04 06:38:39;;;;;;;0.90;0.80;;;11.80;97.30;;;;;;4970975;28;20558;-65
2024/04/04 06:41:05;;;;;;;4.33;1.00;;;11.90;97.30;;;;;;4971722;28;20438;-65
2024/04/04 06:43:30;;;;;;;0.90;0.80;;;12.00;97.30;;;;;;4970625;28;20781;-65
2024/04/04 06:45:56;;;;;;;0.70;0.70;;;12.10;97.30;;;;;;4979209;28;20212;-65
2024/04/04 06:48:22;;;;;;;1.33;1.23;;;12.20;97.30;;;;;;4972243;28;20557;-65
2024/04/04 06:50:48;;;;;;;1.00;1.00;;;12.20;97.30;;;;;;4965020;28;20199;-65
2024/04/04 06:53:13;;;;;;;0.90;0.80;;;12.40;97.30;;;;;;4976920;28;20496;-65
2024/04/04 06:55:39;;;;;;;1.00;0.90;;;12.50;97.30;;;;;;4967202;28;20190;-65
2024/04/04 06:58:04;;;;;;;0.83;0.77;;;12.60;97.30;;;;;;4973937;28;20260;-66
2024/04/04 07:00:30;;;;;;;1.67;1.57;;;12.60;97.00;;;;;;4998856;28;20209;-65
2024/04/04 07:02:55;;;;;;;0.90;0.80;;;12.70;97.30;;;;;;4982600;28;20713;-65
2024/04/04 07:05:23;;;;;;;0.80;0.70;;;12.90;97.10;;;;;;4968505;28;20224;-66
2024/04/04 07:07:48;;;;;;;0.70;0.70;;;13.00;96.60;;;;;;4999169;28;20174;-65
2024/04/04 07:10:14;;;;;;;1.17;1.07;;;13.10;96.80;;;;;;4982748;28;20476;-66
2024/04/04 07:12:40;;;;;;;1.33;1.23;;;13.10;96.60;;;;;;4977010;28;20737;-65
2024/04/04 07:15:07;;;;;;;0.83;0.77;;;13.20;96.50;;;;;;4978602;28;20634;-65
2024/04/04 07:17:32;;;;;;;2.10;1.00;;;13.20;96.00;;;;;;4957884;28;20202;-65
2024/04/04 07:19:59;;;;;;;1.30;1.07;;;13.20;96.30;;;;;;4978466;28;20461;-66
2024/04/04 07:22:24;;;;;;;0.80;0.70;;;13.20;96.40;;;;;;4985213;28;20210;-65
2024/04/04 07:24:50;;;;;;;0.90;0.80;;;13.20;96.20;;;;;;4969795;28;20999;-65
2024/04/04 07:27:16;;;;;;;1.33;1.23;;;13.10;96.20;;;;;;4963278;28;20556;-65
2024/04/04 07:29:42;;;;;;;1.37;0.90;;;13.10;96.70;;;;;;4969793;28;20206;-66
2024/04/04 07:32:08;;;;;;;0.80;0.70;;;13.10;96.40;;;;;;4987434;28;20265;-65
2024/04/04 07:34:34;;;;;;;1.40;1.37;;;13.10;97.10;;;;;;4970787;28;20437;-65
2024/04/04 07:37:00;;;;;;;1.47;0.70;;;13.00;96.20;;;;;;4970071;28;20435;-65
2024/04/04 07:39:26;;;;;;;0.70;0.70;;;12.90;96.40;;;;;;4959340;28;20426;-66
2024/04/04 07:41:52;;;;;;;1.20;1.13;;;12.80;96.80;;;;;;4966172;28;20229;-65
2024/04/04 07:44:18;;;;;;;0.80;0.70;;;12.80;97.30;;;;;;4961720;28;20917;-65
2024/04/04 07:46:43;;;;;;;1.00;0.90;;;12.80;97.30;;;;;;4969738;28;20435;-65
2024/04/04 07:49:09;;;;;;;0.90;0.80;;;12.80;97.30;;;;;;4968527;28;20305;-66
2024/04/04 07:51:35;;;;;;;0.77;0.73;;;12.90;97.30;;;;;;4971305;28;20226;-65
2024/04/04 07:54:00;;;;;;;1.17;1.07;;;12.90;97.30;;;;;;4973601;28;20408;-65
2024/04/04 07:56:26;;;;;;;0.80;0.70;;;12.90;97.30;;;;;;4964719;28;20473;-66
2024/04/04 07:58:52;;;;;;;0.80;0.70;;;12.90;97.30;;;;;;4965324;28;20178;-65
2024/04/04 08:01:20;;;;;;;0.80;0.70;;;13.00;97.30;;;;;;4958556;28;20207;-65
2024/04/04 08:03:47;;;;;;;0.90;0.80;;;13.00;97.30;;;;;;4961830;28;20552;-65
2024/04/04 08:06:16;;;;;;;8.90;2.20;;;13.00;97.30;;;;;;4962357;28;21020;-65
2024/04/04 08:08:42;;;;;;;0.80;0.70;;;13.10;97.30;;;;;;4958110;28;20774;-65
2024/04/04 08:11:11;;;;;;;0.90;0.80;;;13.10;97.30;;;;;;4965913;28;20442;-65
2024/04/04 08:13:37;;;;;;;0.70;0.70;;;13.20;97.30;;;;;;4962471;28;20421;-65
2024/04/04 08:16:04;;;;;;;0.80;0.70;;;13.30;97.30;;;;;;4955874;28;20425;-65
2024/04/04 08:18:29;;;;;;;3.33;0.83;;;13.50;97.30;;;;;;4957566;28;20441;-65
2024/04/04 08:20:55;;;;;;;0.70;0.67;;;13.60;97.30;;;;;;4951128;28;20439;-65
2024/04/04 08:23:20;;;;;;;0.90;0.80;;;13.60;97.30;;;;;;4966539;28;20663;-65
2024/04/04 08:25:53;;;;;;;1.00;0.90;;;13.60;97.30;;;;;;4958976;28;20180;-65
2024/04/04 08:28:19;;;;;;;1.20;1.10;;;13.50;97.30;;;;;;4959283;28;20566;-65
2024/04/04 08:30:44;;;;;;;3.53;1.27;;;13.50;97.30;;;;;;4955829;28;20998;-65
2024/04/04 08:33:11;;;;;;;0.90;0.80;;;13.40;97.30;;;;;;4960934;28;20181;-65
2024/04/04 08:35:37;;;;;;;1.80;1.37;;;13.40;97.30;;;;;;4962311;28;20418;-66
2024/04/04 08:38:02;;;;;;;1.07;0.97;;;13.30;97.30;;;;;;4969999;28;20194;-65
2024/04/04 08:40:29;;;;;;;1.83;1.73;;;13.20;97.30;;;;;;4961013;28;20234;-65
2024/04/04 08:42:55;;;;;;;0.70;0.70;;;13.10;97.30;;;;;;4962827;28;20185;-65
2024/04/04 08:45:22;;;;;;;0.63;0.60;;;12.90;97.30;;;;;;4969159;28;20422;-65
2024/04/04 08:47:48;;;;;;;1.00;0.90;;;12.80;97.30;;;;;;4956236;28;20190;-65
2024/04/04 08:50:15;;;;;;;0.87;0.80;;;12.70;97.30;;;;;;4959456;28;20500;-65
2024/04/04 08:52:40;;;;;;;1.30;0.90;;;12.80;97.30;;;;;;4957424;28;20441;-65
2024/04/04 08:55:06;;;;;;;1.00;0.90;;;12.80;97.30;;;;;;4937368;28;20448;-65
2024/04/04 08:57:35;;;;;;;1.10;1.00;;;12.80;97.30;;;;;;4957084;28;20645;-65
2024/04/04 09:00:03;;;;;;;1.00;0.90;;;12.80;97.30;;;;;;4974845;28;20671;-65
2024/04/04 09:02:28;;;;;;;0.73;0.67;;;12.80;97.30;;;;;;4962614;28;20422;-65
2024/04/04 09:05:07;;;;;;;0.90;0.80;;;12.90;97.30;;;;;;4954832;28;20517;-65
2024/04/04 09:07:36;;;;;;;1.00;0.90;;;13.10;97.30;;;;;;4966036;28;20428;-65
2024/04/04 09:10:03;;;;;;;0.90;0.80;;;13.30;97.30;;;;;;4995867;28;20914;-65
2024/04/04 09:12:29;;;;;;;0.93;0.90;;;13.50;97.30;;;;;;4966583;28;20502;-65
2024/04/04 09:14:59;;;;;;;3.43;2.00;;;13.60;97.30;;;;;;4973054;28;20516;-65
2024/04/04 09:17:26;;;;;;;1.07;0.83;;;13.70;97.30;;;;;;4962412;28;20175;-64
2024/04/04 09:19:59;;;;;;;1.20;0.80;;;13.80;97.30;;;;;;4969936;28;20496;-65
2024/04/04 09:22:25;;;;;;;0.93;0.83;;;13.90;97.30;;;;;;4971558;28;20506;-65
2024/04/04 09:24:59;;;;;;;0.80;0.80;;;14.00;97.30;;;;;;4966738;28;20901;-65
2024/04/04 09:27:25;;;;;;;0.70;0.70;;;14.20;97.30;;;;;;4976640;28;20852;-65
2024/04/04 09:29:52;;;;;;;1.23;1.13;;;14.30;97.30;;;;;;4969657;28;20469;-65
2024/04/04 09:32:19;;;;;;;1.27;1.27;;;14.30;97.30;;;;;;4952245;28;20521;-65
2024/04/04 09:34:45;;;;;;;0.77;0.70;;;14.40;97.30;;;;;;4982301;28;20430;-65
2024/04/04 09:37:14;;;;;;;0.90;0.80;;;14.50;97.30;;;;;;4969262;28;20504;-65
2024/04/04 09:39:41;;;;;;;1.00;0.90;;;14.60;97.30;;;;;;4964942;28;20441;-65
2024/04/04 09:42:10;;;;;;;3.43;1.30;;;14.60;97.30;;;;;;4967063;28;20458;-65
2024/04/04 09:44:36;;;;;;;1.33;1.23;;;14.60;97.30;;;;;;4991674;28;20488;-64
2024/04/04 09:47:03;;;;;;;0.70;0.70;;;14.50;97.30;;;;;;4961567;28;20435;-64
2024/04/04 09:49:32;;;;;;;0.90;0.80;;;14.50;97.30;;;;;;4967852;28;21019;-64
2024/04/04 09:52:01;;;;;;;0.77;0.70;;;14.50;97.30;;;;;;4962458;28;20502;-65
2024/04/04 09:54:28;;;;;;;3.60;1.00;;;14.50;97.30;;;;;;4965991;28;20547;-64
2024/04/04 09:56:55;;;;;;;1.37;1.07;;;14.50;97.30;;;;;;4965484;28;20431;-65
2024/04/04 09:59:28;;;;;;;0.93;0.83;;;14.50;97.30;;;;;;4963895;28;20971;-64
2024/04/04 10:02:04;;;;;;;0.93;0.87;;;14.60;97.30;;;;;;4973282;28;20460;-65
2024/04/04 10:04:36;;;;;;;1.00;0.80;;;14.60;97.30;;;;;;4973135;28;20433;-64
2024/04/04 10:07:02;;;;;;;0.87;0.80;;;14.70;97.30;;;;;;4972168;28;20977;-65
2024/04/04 10:09:36;;;;;;;0.77;0.70;;;14.80;97.30;;;;;;4956424;28;20474;-64
2024/04/04 10:12:13;;;;;;;0.73;0.70;;;14.80;97.30;;;;;;4963601;28;20450;-65
2024/04/04 10:14:54;;;;;;;7.03;1.03;;;14.90;97.30;;;;;;4979367;28;20436;-66
2024/04/04 10:17:20;;;;;;;0.90;0.80;;;14.90;97.30;;;;;;4982969;28;20444;-65
2024/04/04 10:19:48;;;;;;;0.90;0.80;;;14.90;97.30;;;;;;5002211;28;20459;-65
2024/04/04 10:22:17;;;;;;;0.80;0.70;;;14.90;97.30;;;;;;4981973;28;20209;-65
2024/04/04 10:24:43;;;;;;;0.70;0.70;;;14.90;97.30;;;;;;4979600;28;20476;-66
2024/04/04 10:27:12;;;;;;;0.90;0.80;;;14.80;97.30;;;;;;4981273;28;20417;-65
2024/04/04 10:29:41;;;;;;;0.70;0.70;;;14.70;97.30;;;;;;4995197;28;20222;-65
2024/04/04 10:32:08;;;;;;;0.90;0.80;;;14.60;97.30;;;;;;4980645;28;20480;-65
2024/04/04 10:34:33;;;;;;;0.60;0.60;;;14.50;97.30;;;;;;4979570;28;20508;-64
2024/04/04 10:37:00;;;;;;;0.90;0.80;;;14.50;97.30;;;;;;4972440;28;20509;-64
2024/04/04 10:39:25;;;;;;;0.90;0.80;;;14.40;97.30;;;;;;4980865;28;20194;-64
2024/04/04 10:41:55;;;;;;;1.13;1.03;;;14.40;97.30;;;;;;4980625;28;20449;-65
2024/04/04 10:44:22;;;;;;;0.90;0.80;;;14.50;97.30;;;;;;4981008;28;20447;-64
2024/04/04 10:46:50;;;;;;;0.70;0.70;;;14.50;97.30;;;;;;4972426;28;20740;-65
2024/04/04 10:49:17;;;;;;;0.80;0.70;;;14.60;97.30;;;;;;4963134;28;20524;-65
2024/04/04 10:51:50;;;;;;;0.90;0.80;;;14.70;97.30;;;;;;4967771;28;20549;-65
2024/04/04 10:54:17;;;;;;;0.70;0.70;;;14.70;97.30;;;;;;4952572;28;20754;-64
2024/04/04 10:56:42;;;;;;;0.70;0.70;;;14.80;97.30;;;;;;4972139;28;20420;-64
2024/04/04 10:59:09;;;;;;;0.80;0.70;;;14.70;97.30;;;;;;4971099;28;20437;-64
2024/04/04 11:01:35;;;;;;;0.67;0.63;;;14.70;97.30;;;;;;4970946;28;20927;-64
2024/04/04 11:04:00;;;;;;;0.60;0.60;;;14.60;97.30;;;;;;4963193;28;20440;-64
2024/04/04 11:06:27;;;;;;;0.87;0.83;;;14.50;97.30;;;;;;4960558;28;20187;-65
2024/04/04 11:08:54;;;;;;;0.70;0.70;;;14.40;97.30;;;;;;4959535;28;20580;-64
2024/04/04 11:11:21;;;;;;;0.93;0.87;;;14.30;97.30;;;;;;4953732;28;20719;-63
2024/04/04 11:13:48;;;;;;;0.80;0.70;;;14.30;97.30;;;;;;4964209;28;21176;-65
2024/04/04 11:16:14;;;;;;;0.90;0.80;;;14.30;97.30;;;;;;4971137;28;20865;-63
2024/04/04 11:18:40;;;;;;;0.80;0.77;;;14.30;97.30;;;;;;4956644;28;20442;-63
2024/04/04 11:21:08;;;;;;;0.83;0.77;;;14.30;97.30;;;;;;4972225;28;20245;-63
2024/04/04 11:23:34;;;;;;;0.70;0.70;;;14.30;97.30;;;;;;4987799;28;20193;-63
2024/04/04 11:26:00;;;;;;;0.70;0.70;;;14.40;97.30;;;;;;4968831;28;20444;-63
2024/04/04 11:28:25;;;;;;;0.70;0.70;;;14.40;97.30;;;;;;4972989;28;20422;-63
2024/04/04 11:30:51;;;;;;;20.03;2.73;;;14.40;97.30;;;;;;4960382;28;20241;-63
2024/04/04 11:33:17;;;;;;;1.20;1.10;;;14.40;97.30;;;;;;4978265;28;20237;-64
2024/04/04 11:35:44;;;;;;;2.53;1.97;;;14.50;97.30;;;;;;4964601;28;20438;-65
2024/04/04 11:38:09;;;;;;;1.07;1.00;;;14.50;97.30;;;;;;4967339;28;20266;-64
2024/04/04 11:40:35;;;;;;;1.07;0.70;;;14.70;97.30;;;;;;4968170;28;20522;-63
2024/04/04 11:43:00;;;;;;;0.97;0.93;;;14.70;97.30;;;;;;4968184;28;20663;-63
2024/04/04 11:45:26;;;;;;;1.57;1.47;;;14.80;97.30;;;;;;4979633;28;20194;-63
2024/04/04 11:47:51;;;;;;;0.60;0.60;;;14.80;97.30;;;;;;4980472;28;20183;-64
2024/04/04 11:50:17;;;;;;;1.43;0.97;;;14.90;97.30;;;;;;4967769;28;20217;-64
2024/04/04 11:52:46;;;;;;;1.67;1.00;;;15.00;97.30;;;;;;4993623;28;20179;-64
2024/04/04 11:55:11;;;;;;;0.60;0.60;;;15.00;97.30;;;;;;4970062;28;20197;-64
2024/04/04 11:57:37;;;;;;;2.30;1.30;;;15.00;97.30;;;;;;4976150;28;20835;-64
2024/04/04 12:00:04;;;;;;;0.70;0.70;;;14.90;97.30;;;;;;4966228;28;20190;-64
2024/04/04 12:02:29;;;;;;;1.27;1.00;;;14.80;97.30;;;;;;4957018;28;20186;-64
2024/04/04 12:04:55;;;;;;;2.10;1.03;;;14.80;97.30;;;;;;4991649;28;20430;-64
2024/04/04 12:07:21;;;;;;;0.90;0.80;;;14.80;97.30;;;;;;4968805;28;20224;-64
2024/04/04 12:09:47;;;;;;;1.10;1.00;;;14.80;97.30;;;;;;4975159;28;20217;-64
2024/04/04 12:12:14;;;;;;;0.60;0.60;;;14.80;97.30;;;;;;4966540;28;20206;-64
2024/04/04 12:14:40;;;;;;;1.07;0.97;;;14.90;97.30;;;;;;4955079;28;20190;-64
2024/04/04 12:17:05;;;;;;;0.90;0.80;;;15.00;97.30;;;;;;4972187;28;20426;-62
2024/04/04 12:19:31;;;;;;;3.37;0.90;;;15.10;97.30;;;;;;4976556;28;20348;-63
2024/04/04 12:21:57;;;;;;;1.37;1.10;;;15.10;97.30;;;;;;4976111;28;20256;-63
2024/04/04 12:24:23;;;;;;;0.90;0.80;;;15.20;97.30;;;;;;4973395;28;20263;-63
2024/04/04 12:26:52;;;;;;;0.90;0.80;;;15.30;97.30;;;;;;4973233;28;20187;-64
2024/04/04 12:29:19;;;;;;;0.87;0.80;;;15.30;97.30;;;;;;4959448;28;20199;-63
2024/04/04 12:31:45;;;;;;;2.97;1.63;;;15.50;97.30;;;;;;4969624;28;20469;-63
2024/04/04 12:34:11;;;;;;;0.60;0.60;;;15.80;97.30;;;;;;4963462;28;20761;-63
2024/04/04 12:36:36;;;;;;;4.53;1.73;;;15.90;97.30;;;;;;4975121;28;20886;-63
2024/04/04 12:39:08;;;;;;;0.70;0.70;;;15.80;97.30;;;;;;4953643;28;20191;-63
2024/04/04 12:41:34;;;;;;;0.80;0.70;;;15.80;97.30;;;;;;4969474;28;20197;-63
2024/04/04 12:44:00;;;;;;;1.77;1.67;;;15.80;97.30;;;;;;4964021;28;20948;-63
2024/04/04 12:46:28;;;;;;;2.70;1.87;;;15.70;97.30;;;;;;4969268;28;20425;-62
2024/04/04 12:48:58;;;;;;;0.70;0.70;;;15.60;97.30;;;;;;4967347;28;20189;-64
2024/04/04 12:51:24;;;;;;;0.60;0.60;;;15.60;97.30;;;;;;4960650;28;20450;-63
2024/04/04 12:53:49;;;;;;;2.73;1.30;;;15.60;97.30;;;;;;4970139;28;21088;-65
2024/04/04 12:56:15;;;;;;;0.93;0.83;;;15.50;97.30;;;;;;4970157;28;20266;-64
2024/04/04 12:58:41;;;;;;;0.70;0.70;;;15.50;97.30;;;;;;4967179;28;20179;-65
2024/04/04 13:01:06;;;;;;;0.60;0.60;;;15.50;97.30;;;;;;4950010;28;20582;-65
2024/04/04 13:03:32;;;;;;;0.80;0.70;;;15.40;97.30;;;;;;4970870;28;20185;-64
2024/04/04 13:05:57;;;;;;;0.80;0.70;;;15.40;97.30;;;;;;4983473;28;20175;-64
2024/04/04 13:08:23;;;;;;;0.90;0.80;;;15.30;97.30;;;;;;4962641;28;20179;-65
2024/04/04 13:10:49;;;;;;;0.93;0.90;;;15.20;97.30;;;;;;4966173;28;20221;-63
2024/04/04 13:13:15;;;;;;;0.60;0.60;;;15.00;97.30;;;;;;4966015;28;20185;-64
2024/04/04 13:15:41;;;;;;;0.70;0.63;;;14.90;97.30;;;;;;4974113;28;20784;-64
2024/04/04 13:18:06;;;;;;;1.00;0.93;;;14.80;97.30;;;;;;4965529;28;20549;-65
2024/04/04 13:20:32;;;;;;;1.20;1.10;;;14.90;97.30;;;;;;4968817;28;20245;-64
2024/04/04 13:22:58;;;;;;;1.40;1.30;;;15.00;97.30;;;;;;4957796;28;20176;-63
2024/04/04 13:25:25;;;;;;;1.10;1.00;;;15.10;97.30;;;;;;4973825;28;20414;-64
2024/04/04 13:27:51;;;;;;;0.70;0.70;;;15.20;97.30;;;;;;4950598;28;20418;-65
2024/04/04 13:30:17;;;;;;;0.70;0.70;;;15.20;97.30;;;;;;4959233;28;20891;-63
2024/04/04 13:32:42;;;;;;;0.90;0.80;;;15.10;97.30;;;;;;4950649;28;20254;-64
2024/04/04 13:35:08;;;;;;;0.80;0.80;;;15.10;97.30;;;;;;4959118;28;20183;-64
2024/04/04 13:37:33;;;;;;;0.60;0.60;;;15.20;97.30;;;;;;4957313;28;20179;-64
2024/04/04 13:39:59;;;;;;;1.37;1.37;;;15.30;97.30;;;;;;4963768;28;20265;-64
2024/04/04 13:42:24;;;;;;;1.10;1.00;;;15.60;97.30;;;;;;4975608;28;20198;-64
2024/04/04 13:44:50;;;;;;;0.90;0.80;;;15.90;97.30;;;;;;4967242;28;20264;-65
2024/04/04 13:47:15;;;;;;;0.60;0.60;;;16.30;97.20;;;;;;4958027;28;20213;-64
2024/04/04 13:49:41;;;;;;;0.70;0.70;;;16.60;96.80;;;;;;4960326;28;21953;-64
2024/04/04 13:52:07;;;;;;;0.77;0.73;;;17.00;95.30;;;;;;4974422;28;20194;-64
2024/04/04 13:54:32;;;;;;;1.03;0.97;;;17.40;94.00;;;;;;4974458;28;20691;-64
2024/04/04 13:56:58;;;;;;;0.80;0.70;;;17.50;93.50;;;;;;4962779;28;20258;-64
2024/04/04 13:59:24;;;;;;;0.73;0.70;;;17.40;93.00;;;;;;4972484;28;20452;-64
2024/04/04 14:01:49;;;;;;;8.10;2.20;;;17.20;92.50;;;;;;4966911;28;20264;-63
2024/04/04 14:04:15;;;;;;;0.70;0.70;;;17.10;93.90;;;;;;4969508;28;20253;-65
2024/04/04 14:06:44;;;;;;;0.70;0.70;;;17.10;92.90;;;;;;4951843;28;20210;-65
2024/04/04 14:09:10;;;;;;;1.13;0.80;;;17.40;91.80;;;;;;4961179;28;20302;-64
2024/04/04 14:11:36;;;;;;;0.70;0.70;;;18.20;91.30;;;;;;4983730;28;20816;-64
2024/04/04 14:14:05;;;;;;;1.63;1.10;;;18.50;90.60;;;;;;4982395;28;20416;-62
2024/04/04 14:16:31;;;;;;;0.70;0.70;;;19.10;88.60;;;;;;4986308;28;20438;-64
2024/04/04 14:18:56;;;;;;;0.70;0.70;;;19.30;87.10;;;;;;4972403;28;20428;-65
2024/04/04 14:21:23;;;;;;;0.90;0.80;;;19.40;86.70;;;;;;4972753;28;20437;-63
2024/04/04 14:23:48;;;;;;;1.13;1.03;;;19.20;86.90;;;;;;4967885;28;20237;-65
2024/04/04 14:26:17;;;;;;;0.70;0.70;;;19.30;87.80;;;;;;4968863;28;20418;-63
2024/04/04 14:28:43;;;;;;;0.77;0.70;;;18.80;88.00;;;;;;4971488;28;20175;-64
2024/04/04 14:31:10;;;;;;;0.70;0.70;;;18.40;88.70;;;;;;4960377;28;20482;-63
2024/04/04 14:33:36;;;;;;;0.70;0.70;;;18.10;89.50;;;;;;4973913;28;20435;-63
2024/04/04 14:36:05;;;;;;;0.77;0.70;;;18.30;88.70;;;;;;4967028;28;20864;-64
2024/04/04 14:38:33;;;;;;;0.60;0.60;;;18.50;87.50;;;;;;4969332;28;20508;-63
2024/04/04 14:41:03;;;;;;;0.70;0.60;;;18.20;87.90;;;;;;4956335;28;20450;-66
2024/04/04 14:43:29;;;;;;;0.60;0.60;;;18.00;88.60;;;;;;4975649;28;20960;-65
2024/04/04 14:45:55;;;;;;;0.77;0.70;;;17.90;88.40;;;;;;4967168;28;20805;-65
2024/04/04 14:48:21;;;;;;;0.70;0.70;;;17.70;88.10;;;;;;4961842;28;20429;-64
2024/04/04 14:50:57;;;;;;;0.70;0.67;;;17.70;88.40;;;;;;4970562;28;20905;-65
2024/04/04 14:53:24;;;;;;;0.90;0.80;;;17.70;88.40;;;;;;4970946;28;20453;-65
2024/04/04 14:55:50;;;;;;;0.90;0.80;;;17.60;88.50;;;;;;4964259;28;20514;-66
2024/04/04 14:58:16;;;;;;;0.73;0.70;;;17.60;89.50;;;;;;4964514;28;20476;-65
2024/04/04 15:00:41;;;;;;;0.90;0.83;;;17.40;89.30;;;;;;4971737;28;20978;-65
2024/04/04 15:03:07;;;;;;;0.87;0.83;;;17.10;89.50;;;;;;4971762;28;20535;-65
2024/04/04 15:05:34;;;;;;;0.77;0.73;;;16.90;90.80;;;;;;4977494;28;20714;-64
2024/04/04 15:07:59;;;;;;;0.80;0.70;;;16.80;90.30;;;;;;4971974;28;20509;-65
2024/04/04 15:10:25;;;;;;;0.90;0.80;;;16.60;91.40;;;;;;4962873;28;20549;-65
2024/04/04 15:12:50;;;;;;;0.90;0.80;;;16.60;91.00;;;;;;4969079;28;20651;-65
2024/04/04 15:15:16;;;;;;;0.70;0.70;;;16.60;91.70;;;;;;4960245;28;20703;-64
2024/04/04 15:17:41;;;;;;;1.13;0.83;;;16.50;91.90;;;;;;4967233;28;20254;-63
2024/04/04 15:20:07;;;;;;;0.80;0.80;;;16.50;92.10;;;;;;4967718;28;20554;-64
2024/04/04 15:22:33;;;;;;;0.90;0.90;;;16.40;92.30;;;;;;4972598;28;20183;-64
2024/04/04 15:24:59;;;;;;;3.40;1.90;;;16.40;92.90;;;;;;4975365;28;20429;-65
2024/04/04 15:27:24;;;;;;;1.07;1.00;;;16.40;93.10;;;;;;4964039;28;20517;-64
2024/04/04 15:29:50;;;;;;;0.83;0.77;;;16.40;93.40;;;;;;4965486;28;20211;-65
2024/04/04 15:32:16;;;;;;;1.57;0.80;;;16.40;93.80;;;;;;4971345;28;20253;-65
2024/04/04 15:34:42;;;;;;;4.43;1.33;;;16.30;93.70;;;;;;4976301;28;20651;-64
2024/04/04 15:37:09;;;;;;;0.80;0.70;;;16.30;93.90;;;;;;4961436;28;20442;-64
2024/04/04 15:39:35;;;;;;;1.13;1.03;;;16.30;93.70;;;;;;4971118;28;20331;-64
2024/04/04 15:42:02;;;;;;;0.90;0.80;;;16.30;93.80;;;;;;4981605;28;20506;-64
2024/04/04 15:44:28;;;;;;;0.80;0.70;;;16.20;94.00;;;;;;4973459;28;20213;-64
2024/04/04 15:46:54;;;;;;;0.70;0.70;;;16.20;93.70;;;;;;4960791;28;20500;-65
2024/04/04 15:49:20;;;;;;;0.70;0.70;;;16.30;94.20;;;;;;4974381;28;20915;-64
2024/04/04 15:51:46;;;;;;;1.27;1.17;;;16.30;94.00;;;;;;4987566;28;20524;-64
2024/04/04 15:54:11;;;;;;;0.90;0.80;;;16.40;93.60;;;;;;4975708;28;20430;-64
2024/04/04 15:56:37;;;;;;;0.80;0.80;;;16.40;93.70;;;;;;4977627;28;20197;-64
2024/04/04 15:59:03;;;;;;;0.70;0.70;;;16.30;93.00;;;;;;4978223;28;20183;-64
2024/04/04 16:01:29;;;;;;;0.70;0.70;;;16.20;92.90;;;;;;4969783;28;20993;-64
2024/04/04 16:03:54;;;;;;;0.80;0.70;;;16.10;93.30;;;;;;4966352;28;20182;-65
2024/04/04 16:06:20;;;;;;;0.70;0.70;;;16.10;93.30;;;;;;4976034;28;20264;-65
2024/04/04 16:08:48;;;;;;;0.70;0.70;;;16.00;93.50;;;;;;4980144;28;20233;-62
2024/04/04 16:11:15;;;;;;;0.70;0.70;;;16.00;93.00;;;;;;4978881;28;20225;-63
2024/04/04 16:13:41;;;;;;;0.80;0.70;;;16.00;93.00;;;;;;4982592;23;20470;-85
2024/04/04 16:16:08;;;;;;;0.70;0.70;;;16.00;92.80;;;;;;4966561;28;20855;-86
2024/04/04 16:18:34;;;;;;;0.90;0.87;;;16.00;92.90;;;;;;4968108;28;20829;-84
2024/04/04 16:21:00;;;;;;;0.67;0.60;;;16.10;92.70;;;;;;4971456;28;20497;-85
2024/04/04 16:23:26;;;;;;;0.77;0.70;;;16.10;92.90;;;;;;4964383;28;20194;-85
2024/04/04 16:26:00;;;;;;;0.70;0.63;;;16.10;92.40;;;;;;4965522;28;20193;-85
2024/04/04 16:28:26;;;;;;;0.70;0.70;;;16.10;92.40;;;;;;4971448;23;20575;-65
2024/04/04 16:30:52;;;;;;;1.63;0.90;;;16.00;92.50;;;;;;4964702;28;20565;-63
2024/04/04 16:33:18;;;;;;;0.80;0.77;;;16.00;92.80;;;;;;4965151;28;20824;-65
2024/04/04 16:35:44;;;;;;;0.70;0.70;;;15.90;92.30;;;;;;4964719;28;21059;-63
2024/04/04 16:38:10;;;;;;;0.73;0.70;;;15.80;92.60;;;;;;4956080;28;20183;-64
2024/04/04 16:40:35;;;;;;;0.70;0.70;;;15.70;92.20;;;;;;4954407;28;21037;-64
2024/04/04 16:43:01;;;;;;;0.70;0.70;;;15.60;92.60;;;;;;4957219;28;20640;-63
2024/04/04 16:45:26;;;;;;;0.73;0.70;;;15.50;92.90;;;;;;4962742;28;20190;-65